sensor_id;sensor_type;location;lat;lon;timestamp;P1;durP1;ratioP1;P2;durP2;ratioP2
74630;SDS011;63138;55.082;38.804;2022-10-17T00:01:33;12.10;;;7.40;;
74630;SDS011;63138;55.082;38.804;2022-10-17T00:04:01;12.67;;;8.23;;
74630;SDS011;63138;55.082;38.804;2022-10-17T00:06:27;12.13;;;7.35;;
74630;SDS011;63138;55.082;38.804;2022-10-17T00:08:53;10.70;;;6.93;;
74630;SDS011;63138;55.082;38.804;2022-10-17T00:11:20;13.10;;;7.10;;
74630;SDS011;63138;55.082;38.804;2022-10-17T00:13:48;10.82;;;6.50;;
74630;SDS011;63138;55.082;38.804;2022-10-17T00:16:21;12.35;;;7.65;;
74630;SDS011;63138;55.082;38.804;2022-10-17T00:18:55;11.83;;;6.00;;
74630;SDS011;63138;55.082;38.804;2022-10-17T00:21:21;13.43;;;7.65;;
74630;SDS011;63138;55.082;38.804;2022-10-17T00:23:48;8.85;;;6.32;;
74630;SDS011;63138;55.082;38.804;2022-10-17T00:26:14;13.00;;;6.95;;
74630;SDS011;63138;55.082;38.804;2022-10-17T00:28:41;12.93;;;7.88;;
74630;SDS011;63138;55.082;38.804;2022-10-17T00:31:10;12.80;;;6.53;;
74630;SDS011;63138;55.082;38.804;2022-10-17T00:33:36;14.30;;;7.10;;
74630;SDS011;63138;55.082;38.804;2022-10-17T00:36:04;10.75;;;7.75;;
74630;SDS011;63138;55.082;38.804;2022-10-17T00:38:37;10.13;;;6.45;;
74630;SDS011;63138;55.082;38.804;2022-10-17T00:41:04;12.73;;;7.47;;
74630;SDS011;63138;55.082;38.804;2022-10-17T00:43:50;12.13;;;7.78;;
74630;SDS011;63138;55.082;38.804;2022-10-17T00:46:20;10.27;;;6.85;;
74630;SDS011;63138;55.082;38.804;2022-10-17T00:48:47;12.07;;;6.95;;
74630;SDS011;63138;55.082;38.804;2022-10-17T00:51:15;15.52;;;8.50;;
74630;SDS011;63138;55.082;38.804;2022-10-17T00:53:43;10.10;;;5.93;;
74630;SDS011;63138;55.082;38.804;2022-10-17T00:56:09;13.95;;;8.65;;
74630;SDS011;63138;55.082;38.804;2022-10-17T00:58:35;11.63;;;7.28;;
74630;SDS011;63138;55.082;38.804;2022-10-17T01:01:02;16.00;;;9.40;;
74630;SDS011;63138;55.082;38.804;2022-10-17T01:03:28;14.32;;;8.80;;
74630;SDS011;63138;55.082;38.804;2022-10-17T01:05:54;15.82;;;8.80;;
74630;SDS011;63138;55.082;38.804;2022-10-17T01:08:20;15.32;;;7.93;;
74630;SDS011;63138;55.082;38.804;2022-10-17T01:13:35;9.93;;;6.57;;
74630;SDS011;63138;55.082;38.804;2022-10-17T01:21:57;13.85;;;7.97;;
74630;SDS011;63138;55.082;38.804;2022-10-17T01:30:25;14.32;;;7.78;;
74630;SDS011;63138;55.082;38.804;2022-10-17T01:38:29;9.15;;;5.95;;
74630;SDS011;63138;55.082;38.804;2022-10-17T01:41:04;13.27;;;7.90;;
74630;SDS011;63138;55.082;38.804;2022-10-17T01:46:40;11.90;;;7.50;;
74630;SDS011;63138;55.082;38.804;2022-10-17T01:49:10;11.05;;;7.00;;
74630;SDS011;63138;55.082;38.804;2022-10-17T01:52:00;12.20;;;6.85;;
74630;SDS011;63138;55.082;38.804;2022-10-17T01:54:32;13.82;;;7.60;;
74630;SDS011;63138;55.082;38.804;2022-10-17T01:57:02;13.70;;;7.00;;
74630;SDS011;63138;55.082;38.804;2022-10-17T01:59:40;15.03;;;8.57;;
74630;SDS011;63138;55.082;38.804;2022-10-17T02:02:09;12.30;;;7.13;;
74630;SDS011;63138;55.082;38.804;2022-10-17T02:04:38;10.05;;;6.00;;
74630;SDS011;63138;55.082;38.804;2022-10-17T02:07:06;11.50;;;7.97;;
74630;SDS011;63138;55.082;38.804;2022-10-17T02:09:33;11.35;;;7.10;;
74630;SDS011;63138;55.082;38.804;2022-10-17T02:20:34;13.15;;;6.97;;
74630;SDS011;63138;55.082;38.804;2022-10-17T02:30:59;11.25;;;6.95;;
74630;SDS011;63138;55.082;38.804;2022-10-17T02:33:38;16.75;;;6.97;;
74630;SDS011;63138;55.082;38.804;2022-10-17T02:36:10;12.45;;;7.30;;
74630;SDS011;63138;55.082;38.804;2022-10-17T02:38:43;12.50;;;6.87;;
74630;SDS011;63138;55.082;38.804;2022-10-17T02:41:12;11.38;;;6.43;;
74630;SDS011;63138;55.082;38.804;2022-10-17T02:43:44;10.90;;;6.63;;
74630;SDS011;63138;55.082;38.804;2022-10-17T02:46:13;10.00;;;7.05;;
74630;SDS011;63138;55.082;38.804;2022-10-17T02:48:49;9.68;;;6.05;;
74630;SDS011;63138;55.082;38.804;2022-10-17T02:56:20;11.95;;;6.97;;
74630;SDS011;63138;55.082;38.804;2022-10-17T02:58:50;10.77;;;6.13;;
74630;SDS011;63138;55.082;38.804;2022-10-17T03:01:19;10.68;;;6.90;;
74630;SDS011;63138;55.082;38.804;2022-10-17T03:03:46;10.53;;;6.23;;
74630;SDS011;63138;55.082;38.804;2022-10-17T03:06:12;14.27;;;6.60;;
74630;SDS011;63138;55.082;38.804;2022-10-17T03:08:37;11.27;;;6.20;;
74630;SDS011;63138;55.082;38.804;2022-10-17T03:11:03;7.72;;;5.10;;
74630;SDS011;63138;55.082;38.804;2022-10-17T03:13:29;8.50;;;6.22;;
74630;SDS011;63138;55.082;38.804;2022-10-17T03:15:56;9.77;;;6.33;;
74630;SDS011;63138;55.082;38.804;2022-10-17T03:18:22;8.90;;;5.72;;
74630;SDS011;63138;55.082;38.804;2022-10-17T03:20:55;13.35;;;6.35;;
74630;SDS011;63138;55.082;38.804;2022-10-17T03:23:21;10.70;;;6.43;;
74630;SDS011;63138;55.082;38.804;2022-10-17T03:25:46;9.10;;;5.88;;
74630;SDS011;63138;55.082;38.804;2022-10-17T03:28:14;8.35;;;6.13;;
74630;SDS011;63138;55.082;38.804;2022-10-17T03:30:39;10.50;;;5.90;;
74630;SDS011;63138;55.082;38.804;2022-10-17T03:33:05;11.85;;;5.88;;
74630;SDS011;63138;55.082;38.804;2022-10-17T03:35:31;8.45;;;5.68;;
74630;SDS011;63138;55.082;38.804;2022-10-17T03:37:58;11.85;;;7.15;;
74630;SDS011;63138;55.082;38.804;2022-10-17T03:40:25;9.53;;;6.27;;
74630;SDS011;63138;55.082;38.804;2022-10-17T03:42:52;9.82;;;5.18;;
74630;SDS011;63138;55.082;38.804;2022-10-17T03:45:18;10.73;;;6.32;;
74630;SDS011;63138;55.082;38.804;2022-10-17T03:47:45;8.50;;;4.83;;
74630;SDS011;63138;55.082;38.804;2022-10-17T03:50:10;12.10;;;5.70;;
74630;SDS011;63138;55.082;38.804;2022-10-17T03:52:37;8.63;;;6.05;;
74630;SDS011;63138;55.082;38.804;2022-10-17T03:55:03;15.30;;;7.07;;
74630;SDS011;63138;55.082;38.804;2022-10-17T03:57:29;10.75;;;6.43;;
74630;SDS011;63138;55.082;38.804;2022-10-17T03:59:55;9.95;;;6.25;;
74630;SDS011;63138;55.082;38.804;2022-10-17T04:02:21;14.10;;;5.17;;
74630;SDS011;63138;55.082;38.804;2022-10-17T04:04:48;10.05;;;6.35;;
74630;SDS011;63138;55.082;38.804;2022-10-17T04:07:14;11.18;;;7.05;;
74630;SDS011;63138;55.082;38.804;2022-10-17T04:09:43;10.27;;;5.57;;
74630;SDS011;63138;55.082;38.804;2022-10-17T04:12:12;9.35;;;5.18;;
74630;SDS011;63138;55.082;38.804;2022-10-17T04:14:38;12.17;;;6.87;;
74630;SDS011;63138;55.082;38.804;2022-10-17T04:17:04;9.95;;;6.47;;
74630;SDS011;63138;55.082;38.804;2022-10-17T04:19:31;9.60;;;5.45;;
74630;SDS011;63138;55.082;38.804;2022-10-17T04:21:57;10.40;;;5.55;;
74630;SDS011;63138;55.082;38.804;2022-10-17T04:24:23;11.73;;;6.57;;
74630;SDS011;63138;55.082;38.804;2022-10-17T04:27:12;10.57;;;6.45;;
74630;SDS011;63138;55.082;38.804;2022-10-17T04:29:41;11.85;;;7.10;;
74630;SDS011;63138;55.082;38.804;2022-10-17T04:32:18;10.98;;;5.95;;
74630;SDS011;63138;55.082;38.804;2022-10-17T04:34:53;9.67;;;5.97;;
74630;SDS011;63138;55.082;38.804;2022-10-17T04:37:22;10.23;;;6.32;;
74630;SDS011;63138;55.082;38.804;2022-10-17T04:39:50;9.48;;;4.72;;
74630;SDS011;63138;55.082;38.804;2022-10-17T04:42:15;12.70;;;5.50;;
74630;SDS011;63138;55.082;38.804;2022-10-17T04:44:41;9.43;;;5.77;;
74630;SDS011;63138;55.082;38.804;2022-10-17T04:47:07;12.05;;;6.22;;
74630;SDS011;63138;55.082;38.804;2022-10-17T04:49:33;12.27;;;7.38;;
74630;SDS011;63138;55.082;38.804;2022-10-17T04:52:06;13.57;;;5.97;;
74630;SDS011;63138;55.082;38.804;2022-10-17T04:54:41;10.60;;;6.38;;
74630;SDS011;63138;55.082;38.804;2022-10-17T04:57:08;17.58;;;6.50;;
74630;SDS011;63138;55.082;38.804;2022-10-17T04:59:34;13.52;;;6.82;;
74630;SDS011;63138;55.082;38.804;2022-10-17T05:02:26;10.88;;;5.47;;
74630;SDS011;63138;55.082;38.804;2022-10-17T05:04:53;12.50;;;6.47;;
74630;SDS011;63138;55.082;38.804;2022-10-17T05:07:20;13.00;;;6.28;;
74630;SDS011;63138;55.082;38.804;2022-10-17T05:10:09;11.65;;;5.88;;
74630;SDS011;63138;55.082;38.804;2022-10-17T05:12:35;14.95;;;6.60;;
74630;SDS011;63138;55.082;38.804;2022-10-17T05:15:03;9.35;;;6.28;;
74630;SDS011;63138;55.082;38.804;2022-10-17T05:17:29;11.27;;;6.87;;
74630;SDS011;63138;55.082;38.804;2022-10-17T05:19:55;9.88;;;5.78;;
74630;SDS011;63138;55.082;38.804;2022-10-17T05:22:21;11.85;;;6.40;;
74630;SDS011;63138;55.082;38.804;2022-10-17T05:24:47;10.13;;;6.43;;
74630;SDS011;63138;55.082;38.804;2022-10-17T05:27:13;14.80;;;6.80;;
74630;SDS011;63138;55.082;38.804;2022-10-17T05:29:39;12.32;;;6.32;;
74630;SDS011;63138;55.082;38.804;2022-10-17T05:32:22;12.90;;;7.00;;
74630;SDS011;63138;55.082;38.804;2022-10-17T05:34:47;12.45;;;6.03;;
74630;SDS011;63138;55.082;38.804;2022-10-17T05:37:16;9.77;;;4.82;;
74630;SDS011;63138;55.082;38.804;2022-10-17T05:39:47;11.63;;;5.90;;
74630;SDS011;63138;55.082;38.804;2022-10-17T05:42:13;9.48;;;6.20;;
74630;SDS011;63138;55.082;38.804;2022-10-17T05:44:39;11.60;;;7.00;;
74630;SDS011;63138;55.082;38.804;2022-10-17T05:47:06;10.18;;;6.85;;
74630;SDS011;63138;55.082;38.804;2022-10-17T05:49:33;13.57;;;6.27;;
74630;SDS011;63138;55.082;38.804;2022-10-17T05:51:59;11.25;;;6.90;;
74630;SDS011;63138;55.082;38.804;2022-10-17T05:54:26;9.23;;;5.18;;
74630;SDS011;63138;55.082;38.804;2022-10-17T05:56:53;9.98;;;5.93;;
74630;SDS011;63138;55.082;38.804;2022-10-17T05:59:24;13.73;;;6.38;;
74630;SDS011;63138;55.082;38.804;2022-10-17T06:01:56;14.43;;;6.17;;
74630;SDS011;63138;55.082;38.804;2022-10-17T06:04:22;11.77;;;6.22;;
74630;SDS011;63138;55.082;38.804;2022-10-17T06:06:52;10.02;;;6.07;;
74630;SDS011;63138;55.082;38.804;2022-10-17T06:09:20;9.07;;;5.43;;
74630;SDS011;63138;55.082;38.804;2022-10-17T06:11:49;6.32;;;4.22;;
74630;SDS011;63138;55.082;38.804;2022-10-17T06:14:15;8.60;;;5.20;;
74630;SDS011;63138;55.082;38.804;2022-10-17T06:16:41;7.80;;;5.10;;
74630;SDS011;63138;55.082;38.804;2022-10-17T06:19:08;9.68;;;5.03;;
74630;SDS011;63138;55.082;38.804;2022-10-17T06:21:35;10.07;;;5.23;;
74630;SDS011;63138;55.082;38.804;2022-10-17T06:24:10;8.13;;;5.68;;
74630;SDS011;63138;55.082;38.804;2022-10-17T06:26:39;9.20;;;5.85;;
74630;SDS011;63138;55.082;38.804;2022-10-17T06:29:06;10.40;;;5.57;;
74630;SDS011;63138;55.082;38.804;2022-10-17T06:31:35;9.07;;;5.70;;
74630;SDS011;63138;55.082;38.804;2022-10-17T06:34:01;11.87;;;4.93;;
74630;SDS011;63138;55.082;38.804;2022-10-17T06:36:28;11.77;;;5.88;;
74630;SDS011;63138;55.082;38.804;2022-10-17T06:38:53;7.07;;;4.32;;
74630;SDS011;63138;55.082;38.804;2022-10-17T06:41:30;11.40;;;5.27;;
74630;SDS011;63138;55.082;38.804;2022-10-17T06:44:02;10.18;;;5.38;;
74630;SDS011;63138;55.082;38.804;2022-10-17T06:47:00;8.98;;;5.40;;
74630;SDS011;63138;55.082;38.804;2022-10-17T06:49:26;7.97;;;5.20;;
74630;SDS011;63138;55.082;38.804;2022-10-17T06:52:12;10.88;;;6.47;;
74630;SDS011;63138;55.082;38.804;2022-10-17T06:54:59;11.43;;;6.53;;
74630;SDS011;63138;55.082;38.804;2022-10-17T06:57:32;6.97;;;5.75;;
74630;SDS011;63138;55.082;38.804;2022-10-17T07:00:18;9.02;;;5.90;;
74630;SDS011;63138;55.082;38.804;2022-10-17T07:02:50;9.05;;;6.07;;
74630;SDS011;63138;55.082;38.804;2022-10-17T07:05:17;8.20;;;5.75;;
74630;SDS011;63138;55.082;38.804;2022-10-17T07:07:44;11.70;;;5.20;;
74630;SDS011;63138;55.082;38.804;2022-10-17T07:10:10;10.50;;;7.03;;
74630;SDS011;63138;55.082;38.804;2022-10-17T07:12:38;9.52;;;7.18;;
74630;SDS011;63138;55.082;38.804;2022-10-17T07:15:04;11.18;;;7.10;;
74630;SDS011;63138;55.082;38.804;2022-10-17T07:17:30;7.75;;;5.30;;
74630;SDS011;63138;55.082;38.804;2022-10-17T07:19:56;10.53;;;5.47;;
74630;SDS011;63138;55.082;38.804;2022-10-17T07:22:22;8.98;;;5.65;;
74630;SDS011;63138;55.082;38.804;2022-10-17T07:24:52;7.10;;;5.43;;
74630;SDS011;63138;55.082;38.804;2022-10-17T07:27:25;8.23;;;4.60;;
74630;SDS011;63138;55.082;38.804;2022-10-17T07:29:50;8.73;;;5.20;;
74630;SDS011;63138;55.082;38.804;2022-10-17T07:32:34;10.88;;;5.53;;
74630;SDS011;63138;55.082;38.804;2022-10-17T07:35:01;8.68;;;5.00;;
74630;SDS011;63138;55.082;38.804;2022-10-17T07:37:28;10.18;;;5.15;;
74630;SDS011;63138;55.082;38.804;2022-10-17T07:39:55;9.00;;;5.30;;
74630;SDS011;63138;55.082;38.804;2022-10-17T07:42:21;9.23;;;4.60;;
74630;SDS011;63138;55.082;38.804;2022-10-17T07:44:48;13.52;;;5.65;;
74630;SDS011;63138;55.082;38.804;2022-10-17T07:47:14;6.10;;;4.25;;
74630;SDS011;63138;55.082;38.804;2022-10-17T07:49:40;8.40;;;4.60;;
74630;SDS011;63138;55.082;38.804;2022-10-17T07:52:09;9.35;;;5.15;;
74630;SDS011;63138;55.082;38.804;2022-10-17T07:54:37;9.23;;;5.20;;
74630;SDS011;63138;55.082;38.804;2022-10-17T07:57:03;9.70;;;5.75;;
74630;SDS011;63138;55.082;38.804;2022-10-17T07:59:31;10.52;;;5.55;;
74630;SDS011;63138;55.082;38.804;2022-10-17T08:01:58;8.37;;;4.83;;
74630;SDS011;63138;55.082;38.804;2022-10-17T08:04:25;10.45;;;5.15;;
74630;SDS011;63138;55.082;38.804;2022-10-17T08:06:51;11.13;;;5.53;;
74630;SDS011;63138;55.082;38.804;2022-10-17T08:09:17;11.48;;;5.43;;
74630;SDS011;63138;55.082;38.804;2022-10-17T08:11:44;10.20;;;5.15;;
74630;SDS011;63138;55.082;38.804;2022-10-17T08:14:10;8.37;;;4.83;;
74630;SDS011;63138;55.082;38.804;2022-10-17T08:16:37;9.48;;;4.70;;
74630;SDS011;63138;55.082;38.804;2022-10-17T08:19:04;10.70;;;4.68;;
74630;SDS011;63138;55.082;38.804;2022-10-17T08:21:29;8.90;;;5.38;;
74630;SDS011;63138;55.082;38.804;2022-10-17T08:23:55;10.60;;;5.80;;
74630;SDS011;63138;55.082;38.804;2022-10-17T08:26:21;8.98;;;4.95;;
74630;SDS011;63138;55.082;38.804;2022-10-17T08:28:47;8.90;;;4.82;;
74630;SDS011;63138;55.082;38.804;2022-10-17T08:31:15;9.10;;;4.83;;
74630;SDS011;63138;55.082;38.804;2022-10-17T08:33:44;11.32;;;5.30;;
74630;SDS011;63138;55.082;38.804;2022-10-17T08:36:11;8.38;;;4.75;;
74630;SDS011;63138;55.082;38.804;2022-10-17T08:38:39;9.90;;;5.82;;
74630;SDS011;63138;55.082;38.804;2022-10-17T08:41:27;9.25;;;6.00;;
74630;SDS011;63138;55.082;38.804;2022-10-17T08:46:56;8.45;;;4.65;;
74630;SDS011;63138;55.082;38.804;2022-10-17T08:52:20;11.48;;;5.15;;
74630;SDS011;63138;55.082;38.804;2022-10-17T08:55:16;11.70;;;5.43;;
74630;SDS011;63138;55.082;38.804;2022-10-17T08:57:48;9.30;;;5.67;;
74630;SDS011;63138;55.082;38.804;2022-10-17T09:00:16;7.80;;;4.97;;
74630;SDS011;63138;55.082;38.804;2022-10-17T09:05:22;9.68;;;5.35;;
74630;SDS011;63138;55.082;38.804;2022-10-17T09:11:03;12.07;;;5.83;;
74630;SDS011;63138;55.082;38.804;2022-10-17T09:13:47;10.55;;;6.03;;
74630;SDS011;63138;55.082;38.804;2022-10-17T09:19:35;7.72;;;4.35;;
74630;SDS011;63138;55.082;38.804;2022-10-17T09:22:08;9.10;;;5.15;;
74630;SDS011;63138;55.082;38.804;2022-10-17T09:27:48;8.52;;;5.35;;
74630;SDS011;63138;55.082;38.804;2022-10-17T09:33:16;9.73;;;5.00;;
74630;SDS011;63138;55.082;38.804;2022-10-17T09:35:44;11.63;;;5.30;;
74630;SDS011;63138;55.082;38.804;2022-10-17T09:38:18;9.57;;;5.00;;
74630;SDS011;63138;55.082;38.804;2022-10-17T09:40:58;11.18;;;5.80;;
74630;SDS011;63138;55.082;38.804;2022-10-17T09:43:25;17.20;;;6.25;;
74630;SDS011;63138;55.082;38.804;2022-10-17T09:46:02;12.15;;;6.05;;
74630;SDS011;63138;55.082;38.804;2022-10-17T09:48:37;10.00;;;4.97;;
74630;SDS011;63138;55.082;38.804;2022-10-17T09:51:09;11.87;;;5.30;;
74630;SDS011;63138;55.082;38.804;2022-10-17T09:53:37;10.73;;;5.25;;
74630;SDS011;63138;55.082;38.804;2022-10-17T09:56:07;9.82;;;4.72;;
74630;SDS011;63138;55.082;38.804;2022-10-17T09:58:48;9.30;;;4.63;;
74630;SDS011;63138;55.082;38.804;2022-10-17T10:01:28;8.27;;;4.50;;
74630;SDS011;63138;55.082;38.804;2022-10-17T10:09:48;7.45;;;4.22;;
74630;SDS011;63138;55.082;38.804;2022-10-17T10:12:20;6.85;;;3.33;;
74630;SDS011;63138;55.082;38.804;2022-10-17T10:14:51;8.20;;;4.53;;
74630;SDS011;63138;55.082;38.804;2022-10-17T10:20:26;10.40;;;4.88;;
74630;SDS011;63138;55.082;38.804;2022-10-17T10:23:06;7.72;;;4.10;;
74630;SDS011;63138;55.082;38.804;2022-10-17T10:25:33;8.63;;;4.38;;
74630;SDS011;63138;55.082;38.804;2022-10-17T10:28:08;10.52;;;4.63;;
74630;SDS011;63138;55.082;38.804;2022-10-17T10:30:35;9.87;;;4.23;;
74630;SDS011;63138;55.082;38.804;2022-10-17T10:33:02;9.50;;;4.13;;
74630;SDS011;63138;55.082;38.804;2022-10-17T10:35:30;12.05;;;4.78;;
74630;SDS011;63138;55.082;38.804;2022-10-17T10:38:02;8.93;;;4.68;;
74630;SDS011;63138;55.082;38.804;2022-10-17T10:40:36;7.32;;;4.78;;
74630;SDS011;63138;55.082;38.804;2022-10-17T10:43:19;8.13;;;4.63;;
74630;SDS011;63138;55.082;38.804;2022-10-17T10:45:46;10.15;;;4.55;;
74630;SDS011;63138;55.082;38.804;2022-10-17T10:48:20;8.52;;;4.93;;
74630;SDS011;63138;55.082;38.804;2022-10-17T10:50:49;9.25;;;5.35;;
74630;SDS011;63138;55.082;38.804;2022-10-17T10:59:16;10.35;;;6.60;;
74630;SDS011;63138;55.082;38.804;2022-10-17T11:02:00;12.13;;;6.30;;
74630;SDS011;63138;55.082;38.804;2022-10-17T11:04:56;10.27;;;6.53;;
74630;SDS011;63138;55.082;38.804;2022-10-17T11:07:32;13.75;;;6.35;;
74630;SDS011;63138;55.082;38.804;2022-10-17T11:10:17;15.33;;;6.90;;
74630;SDS011;63138;55.082;38.804;2022-10-17T11:13:05;11.50;;;6.75;;
74630;SDS011;63138;55.082;38.804;2022-10-17T11:15:50;10.60;;;5.78;;
74630;SDS011;63138;55.082;38.804;2022-10-17T11:21:14;8.55;;;5.13;;
74630;SDS011;63138;55.082;38.804;2022-10-17T11:23:50;9.87;;;5.97;;
74630;SDS011;63138;55.082;38.804;2022-10-17T11:26:25;7.70;;;5.07;;
74630;SDS011;63138;55.082;38.804;2022-10-17T11:28:56;9.65;;;5.47;;
74630;SDS011;63138;55.082;38.804;2022-10-17T11:31:25;10.90;;;5.30;;
74630;SDS011;63138;55.082;38.804;2022-10-17T11:34:03;9.30;;;5.50;;
74630;SDS011;63138;55.082;38.804;2022-10-17T11:36:33;11.70;;;6.47;;
74630;SDS011;63138;55.082;38.804;2022-10-17T11:39:06;10.35;;;6.18;;
74630;SDS011;63138;55.082;38.804;2022-10-17T11:41:55;12.80;;;6.93;;
74630;SDS011;63138;55.082;38.804;2022-10-17T11:44:33;11.35;;;6.20;;
74630;SDS011;63138;55.082;38.804;2022-10-17T11:49:37;10.27;;;6.13;;
74630;SDS011;63138;55.082;38.804;2022-10-17T11:52:16;6.88;;;4.80;;
74630;SDS011;63138;55.082;38.804;2022-10-17T11:54:53;12.48;;;6.00;;
74630;SDS011;63138;55.082;38.804;2022-10-17T12:00:21;9.95;;;6.57;;
74630;SDS011;63138;55.082;38.804;2022-10-17T12:11:29;10.02;;;6.07;;
74630;SDS011;63138;55.082;38.804;2022-10-17T12:16:58;10.50;;;5.87;;
74630;SDS011;63138;55.082;38.804;2022-10-17T12:19:31;9.20;;;5.93;;
74630;SDS011;63138;55.082;38.804;2022-10-17T12:24:42;12.88;;;6.78;;
74630;SDS011;63138;55.082;38.804;2022-10-17T12:32:37;11.07;;;5.90;;
74630;SDS011;63138;55.082;38.804;2022-10-17T12:35:23;12.45;;;6.60;;
74630;SDS011;63138;55.082;38.804;2022-10-17T12:45:52;11.57;;;5.68;;
74630;SDS011;63138;55.082;38.804;2022-10-17T12:51:08;11.15;;;5.50;;
74630;SDS011;63138;55.082;38.804;2022-10-17T12:56:18;7.33;;;5.33;;
74630;SDS011;63138;55.082;38.804;2022-10-17T12:58:49;9.65;;;5.35;;
74630;SDS011;63138;55.082;38.804;2022-10-17T13:01:30;12.05;;;6.03;;
74630;SDS011;63138;55.082;38.804;2022-10-17T13:03:58;10.27;;;5.68;;
74630;SDS011;63138;55.082;38.804;2022-10-17T13:06:32;15.18;;;5.57;;
74630;SDS011;63138;55.082;38.804;2022-10-17T13:09:05;11.27;;;6.50;;
74630;SDS011;63138;55.082;38.804;2022-10-17T13:11:36;10.70;;;5.07;;
74630;SDS011;63138;55.082;38.804;2022-10-17T13:14:09;10.35;;;5.30;;
74630;SDS011;63138;55.082;38.804;2022-10-17T13:16:39;9.35;;;5.65;;
74630;SDS011;63138;55.082;38.804;2022-10-17T13:19:18;11.13;;;5.70;;
74630;SDS011;63138;55.082;38.804;2022-10-17T13:21:51;10.07;;;5.17;;
74630;SDS011;63138;55.082;38.804;2022-10-17T13:26:54;10.20;;;5.35;;
74630;SDS011;63138;55.082;38.804;2022-10-17T13:29:21;8.68;;;5.57;;
74630;SDS011;63138;55.082;38.804;2022-10-17T13:31:51;9.80;;;5.25;;
74630;SDS011;63138;55.082;38.804;2022-10-17T13:34:23;11.83;;;5.87;;
74630;SDS011;63138;55.082;38.804;2022-10-17T13:36:54;12.57;;;7.10;;
74630;SDS011;63138;55.082;38.804;2022-10-17T13:39:23;8.57;;;5.35;;
74630;SDS011;63138;55.082;38.804;2022-10-17T13:41:52;12.25;;;6.28;;
74630;SDS011;63138;55.082;38.804;2022-10-17T13:44:22;8.70;;;5.85;;
74630;SDS011;63138;55.082;38.804;2022-10-17T13:46:50;11.37;;;6.00;;
74630;SDS011;63138;55.082;38.804;2022-10-17T13:49:20;8.95;;;4.97;;
74630;SDS011;63138;55.082;38.804;2022-10-17T13:51:57;11.30;;;5.38;;
74630;SDS011;63138;55.082;38.804;2022-10-17T13:54:35;11.95;;;6.22;;
74630;SDS011;63138;55.082;38.804;2022-10-17T13:57:05;9.98;;;5.32;;
74630;SDS011;63138;55.082;38.804;2022-10-17T13:59:41;12.03;;;6.10;;
74630;SDS011;63138;55.082;38.804;2022-10-17T14:02:22;11.02;;;6.18;;
74630;SDS011;63138;55.082;38.804;2022-10-17T14:07:51;8.25;;;5.50;;
74630;SDS011;63138;55.082;38.804;2022-10-17T14:10:30;11.60;;;7.05;;
74630;SDS011;63138;55.082;38.804;2022-10-17T14:13:01;12.20;;;5.60;;
74630;SDS011;63138;55.082;38.804;2022-10-17T14:15:30;13.32;;;7.20;;
74630;SDS011;63138;55.082;38.804;2022-10-17T14:18:01;11.82;;;6.75;;
74630;SDS011;63138;55.082;38.804;2022-10-17T14:20:29;15.55;;;6.65;;
74630;SDS011;63138;55.082;38.804;2022-10-17T14:22:59;10.63;;;6.40;;
74630;SDS011;63138;55.082;38.804;2022-10-17T14:25:36;12.23;;;7.97;;
74630;SDS011;63138;55.082;38.804;2022-10-17T14:30:45;13.27;;;8.63;;
74630;SDS011;63138;55.082;38.804;2022-10-17T14:33:22;11.85;;;7.07;;
74630;SDS011;63138;55.082;38.804;2022-10-17T14:35:51;17.15;;;7.28;;
74630;SDS011;63138;55.082;38.804;2022-10-17T14:38:19;11.33;;;6.53;;
74630;SDS011;63138;55.082;38.804;2022-10-17T14:43:22;12.98;;;7.50;;
74630;SDS011;63138;55.082;38.804;2022-10-17T14:45:50;14.25;;;6.90;;
74630;SDS011;63138;55.082;38.804;2022-10-17T14:48:17;16.58;;;7.57;;
74630;SDS011;63138;55.082;38.804;2022-10-17T14:53:35;15.63;;;7.45;;
74630;SDS011;63138;55.082;38.804;2022-10-17T14:56:03;15.18;;;7.93;;
74630;SDS011;63138;55.082;38.804;2022-10-17T14:58:45;17.98;;;9.40;;
74630;SDS011;63138;55.082;38.804;2022-10-17T15:01:13;18.35;;;9.57;;
74630;SDS011;63138;55.082;38.804;2022-10-17T15:03:39;14.97;;;8.73;;
74630;SDS011;63138;55.082;38.804;2022-10-17T15:06:19;15.13;;;8.02;;
74630;SDS011;63138;55.082;38.804;2022-10-17T15:08:47;16.95;;;9.77;;
74630;SDS011;63138;55.082;38.804;2022-10-17T15:11:14;14.98;;;8.63;;
74630;SDS011;63138;55.082;38.804;2022-10-17T15:13:40;15.93;;;7.63;;
74630;SDS011;63138;55.082;38.804;2022-10-17T15:16:19;14.80;;;7.75;;
74630;SDS011;63138;55.082;38.804;2022-10-17T15:18:50;11.80;;;7.07;;
74630;SDS011;63138;55.082;38.804;2022-10-17T15:21:17;15.45;;;8.52;;
74630;SDS011;63138;55.082;38.804;2022-10-17T15:23:45;15.07;;;8.27;;
74630;SDS011;63138;55.082;38.804;2022-10-17T15:26:16;17.50;;;8.40;;
74630;SDS011;63138;55.082;38.804;2022-10-17T15:28:45;16.08;;;8.07;;
74630;SDS011;63138;55.082;38.804;2022-10-17T15:31:13;12.85;;;7.05;;
74630;SDS011;63138;55.082;38.804;2022-10-17T15:33:42;13.45;;;7.53;;
74630;SDS011;63138;55.082;38.804;2022-10-17T15:36:21;15.88;;;9.02;;
74630;SDS011;63138;55.082;38.804;2022-10-17T15:38:50;15.43;;;8.13;;
74630;SDS011;63138;55.082;38.804;2022-10-17T15:41:18;12.43;;;6.93;;
74630;SDS011;63138;55.082;38.804;2022-10-17T15:43:45;17.20;;;9.63;;
74630;SDS011;63138;55.082;38.804;2022-10-17T15:46:18;14.07;;;8.30;;
74630;SDS011;63138;55.082;38.804;2022-10-17T15:48:48;14.73;;;8.20;;
74630;SDS011;63138;55.082;38.804;2022-10-17T15:51:15;15.50;;;8.07;;
74630;SDS011;63138;55.082;38.804;2022-10-17T15:53:42;13.77;;;7.78;;
74630;SDS011;63138;55.082;38.804;2022-10-17T15:56:14;17.17;;;9.82;;
74630;SDS011;63138;55.082;38.804;2022-10-17T15:58:46;12.90;;;7.60;;
74630;SDS011;63138;55.082;38.804;2022-10-17T16:01:23;17.88;;;9.73;;
74630;SDS011;63138;55.082;38.804;2022-10-17T16:03:57;16.87;;;8.83;;
74630;SDS011;63138;55.082;38.804;2022-10-17T16:06:23;19.35;;;8.32;;
74630;SDS011;63138;55.082;38.804;2022-10-17T16:08:50;16.17;;;8.98;;
74630;SDS011;63138;55.082;38.804;2022-10-17T16:11:26;18.70;;;9.52;;
74630;SDS011;63138;55.082;38.804;2022-10-17T16:13:57;16.42;;;9.10;;
74630;SDS011;63138;55.082;38.804;2022-10-17T16:16:30;16.73;;;9.40;;
74630;SDS011;63138;55.082;38.804;2022-10-17T16:18:56;17.75;;;9.15;;
74630;SDS011;63138;55.082;38.804;2022-10-17T16:21:24;15.88;;;8.18;;
74630;SDS011;63138;55.082;38.804;2022-10-17T16:23:56;15.65;;;8.25;;
74630;SDS011;63138;55.082;38.804;2022-10-17T16:26:23;17.10;;;9.02;;
74630;SDS011;63138;55.082;38.804;2022-10-17T16:28:49;13.77;;;8.43;;
74630;SDS011;63138;55.082;38.804;2022-10-17T16:31:26;15.63;;;8.30;;
74630;SDS011;63138;55.082;38.804;2022-10-17T16:33:55;15.07;;;8.93;;
74630;SDS011;63138;55.082;38.804;2022-10-17T16:36:22;16.05;;;9.48;;
74630;SDS011;63138;55.082;38.804;2022-10-17T16:38:49;19.20;;;9.18;;
74630;SDS011;63138;55.082;38.804;2022-10-17T16:41:19;15.33;;;8.93;;
74630;SDS011;63138;55.082;38.804;2022-10-17T16:43:49;17.98;;;9.95;;
74630;SDS011;63138;55.082;38.804;2022-10-17T16:46:16;18.08;;;10.27;;
74630;SDS011;63138;55.082;38.804;2022-10-17T16:48:46;16.05;;;8.98;;
74630;SDS011;63138;55.082;38.804;2022-10-17T16:51:13;18.33;;;8.90;;
74630;SDS011;63138;55.082;38.804;2022-10-17T16:53:40;19.93;;;10.10;;
74630;SDS011;63138;55.082;38.804;2022-10-17T16:56:13;20.45;;;9.40;;
74630;SDS011;63138;55.082;38.804;2022-10-17T16:58:42;18.08;;;8.68;;
74630;SDS011;63138;55.082;38.804;2022-10-17T17:01:10;19.20;;;9.38;;